sensor_id;sensor_type;location;lat;lon;timestamp;pressure;altitude;pressure_sealevel;temperature;humidity
31183;BME280;17813;0.000;0.000;2023-05-11T00:01:36;99123.53;;;14.27;86.00
31183;BME280;17813;0.000;0.000;2023-05-11T00:04:04;99124.25;;;14.29;86.17
31183;BME280;17813;0.000;0.000;2023-05-11T00:06:35;99119.75;;;14.30;85.80
31183;BME280;17813;0.000;0.000;2023-05-11T00:09:04;99117.81;;;14.32;85.67
31183;BME280;17813;0.000;0.000;2023-05-11T00:11:42;99112.59;;;14.30;85.91
31183;BME280;17813;0.000;0.000;2023-05-11T00:14:16;99113.56;;;14.29;86.05
31183;BME280;17813;0.000;0.000;2023-05-11T00:16:45;99117.09;;;14.30;85.92
31183;BME280;17813;0.000;0.000;2023-05-11T00:19:16;99110.06;;;14.29;85.98
31183;BME280;17813;0.000;0.000;2023-05-11T00:21:53;99128.13;;;14.25;86.02
31183;BME280;17813;0.000;0.000;2023-05-11T00:24:26;99118.34;;;14.14;86.14
31183;BME280;17813;0.000;0.000;2023-05-11T00:27:00;99119.94;;;14.06;86.38
31183;BME280;17813;0.000;0.000;2023-05-11T00:29:30;99119.59;;;13.99;86.64
31183;BME280;17813;0.000;0.000;2023-05-11T00:31:59;99118.50;;;14.02;86.66
31183;BME280;17813;0.000;0.000;2023-05-11T00:34:26;99108.44;;;14.05;86.80
31183;BME280;17813;0.000;0.000;2023-05-11T00:36:53;99111.69;;;14.09;86.47
31183;BME280;17813;0.000;0.000;2023-05-11T00:39:32;99108.19;;;14.08;86.43
31183;BME280;17813;0.000;0.000;2023-05-11T00:42:10;99113.28;;;14.11;86.48
31183;BME280;17813;0.000;0.000;2023-05-11T00:44:41;99113.41;;;14.10;86.48
31183;BME280;17813;0.000;0.000;2023-05-11T00:47:10;99106.50;;;14.07;86.53
31183;BME280;17813;0.000;0.000;2023-05-11T00:49:39;99105.06;;;14.03;86.79
31183;BME280;17813;0.000;0.000;2023-05-11T00:52:11;99109.66;;;14.01;87.27
31183;BME280;17813;0.000;0.000;2023-05-11T00:54:40;99114.28;;;13.99;86.97
31183;BME280;17813;0.000;0.000;2023-05-11T00:57:11;99102.38;;;14.03;87.26
31183;BME280;17813;0.000;0.000;2023-05-11T00:59:40;99114.38;;;14.09;86.98
31183;BME280;17813;0.000;0.000;2023-05-11T01:02:09;99101.75;;;14.11;86.61
31183;BME280;17813;0.000;0.000;2023-05-11T01:04:40;99101.50;;;14.14;86.97
31183;BME280;17813;0.000;0.000;2023-05-11T01:13:24;99107.94;;;14.11;86.88
31183;BME280;17813;0.000;0.000;2023-05-11T01:15:55;99097.88;;;14.15;86.50
31183;BME280;17813;0.000;0.000;2023-05-11T01:18:36;99102.09;;;14.18;86.24
31183;BME280;17813;0.000;0.000;2023-05-11T01:21:09;99099.56;;;14.16;86.41
31183;BME280;17813;0.000;0.000;2023-05-11T01:33:09;99107.22;;;14.09;86.91
31183;BME280;17813;0.000;0.000;2023-05-11T01:35:42;99108.91;;;14.10;87.02
31183;BME280;17813;0.000;0.000;2023-05-11T01:38:13;99102.59;;;14.11;87.08
31183;BME280;17813;0.000;0.000;2023-05-11T02:40:56;99087.41;;;13.91;87.75
31183;BME280;17813;0.000;0.000;2023-05-11T02:43:30;99090.66;;;13.95;87.62
31183;BME280;17813;0.000;0.000;2023-05-11T02:46:05;99097.31;;;14.00;87.12
31183;BME280;17813;0.000;0.000;2023-05-11T02:48:39;99092.69;;;14.02;87.11
31183;BME280;17813;0.000;0.000;2023-05-11T02:51:11;99091.47;;;14.06;87.03
31183;BME280;17813;0.000;0.000;2023-05-11T02:53:42;99082.50;;;14.07;86.96
31183;BME280;17813;0.000;0.000;2023-05-11T02:56:11;99089.41;;;14.10;87.08
31183;BME280;17813;0.000;0.000;2023-05-11T02:58:39;99081.16;;;14.13;87.13
31183;BME280;17813;0.000;0.000;2023-05-11T03:01:07;99084.53;;;14.15;86.93
31183;BME280;17813;0.000;0.000;2023-05-11T03:03:34;99078.09;;;14.18;86.90
31183;BME280;17813;0.000;0.000;2023-05-11T03:06:02;99079.91;;;14.17;86.45
31183;BME280;17813;0.000;0.000;2023-05-11T03:08:29;99082.59;;;14.17;86.44
31183;BME280;17813;0.000;0.000;2023-05-11T03:10:57;99079.06;;;14.16;86.73
31183;BME280;17813;0.000;0.000;2023-05-11T03:13:25;99078.81;;;14.20;86.59
31183;BME280;17813;0.000;0.000;2023-05-11T03:15:54;99077.13;;;14.19;86.59
31183;BME280;17813;0.000;0.000;2023-05-11T03:18:22;99084.41;;;14.16;86.43
31183;BME280;17813;0.000;0.000;2023-05-11T03:20:51;99085.50;;;14.14;86.71
31183;BME280;17813;0.000;0.000;2023-05-11T03:23:20;99082.84;;;14.14;86.80
31183;BME280;17813;0.000;0.000;2023-05-11T03:25:48;99090.00;;;14.13;86.95
31183;BME280;17813;0.000;0.000;2023-05-11T03:28:15;99082.13;;;14.12;86.99
31183;BME280;17813;0.000;0.000;2023-05-11T03:30:46;99078.72;;;14.10;87.07
31183;BME280;17813;0.000;0.000;2023-05-11T03:33:14;99076.66;;;14.13;87.13
31183;BME280;17813;0.000;0.000;2023-05-11T03:35:43;99074.97;;;14.12;87.19
31183;BME280;17813;0.000;0.000;2023-05-11T03:38:12;99072.31;;;14.12;87.13
31183;BME280;17813;0.000;0.000;2023-05-11T05:41:48;99084.53;;;14.15;89.82
31183;BME280;17813;0.000;0.000;2023-05-11T05:44:18;99089.81;;;14.26;89.21
31183;BME280;17813;0.000;0.000;2023-05-11T05:46:51;99089.19;;;14.34;89.16
31183;BME280;17813;0.000;0.000;2023-05-11T05:49:18;99088.06;;;14.47;88.52
31183;BME280;17813;0.000;0.000;2023-05-11T05:51:49;99087.28;;;14.57;88.33
31183;BME280;17813;0.000;0.000;2023-05-11T05:54:20;99091.25;;;14.62;87.75
31183;BME280;17813;0.000;0.000;2023-05-11T05:56:51;99090.28;;;14.63;88.00
31183;BME280;17813;0.000;0.000;2023-05-11T05:59:20;99097.44;;;14.63;87.96
31183;BME280;17813;0.000;0.000;2023-05-11T06:01:52;99093.09;;;14.62;87.96
31183;BME280;17813;0.000;0.000;2023-05-11T06:04:19;99091.84;;;14.66;88.27
31183;BME280;17813;0.000;0.000;2023-05-11T06:06:49;99090.75;;;14.68;87.98
31183;BME280;17813;0.000;0.000;2023-05-11T06:09:24;99097.19;;;14.66;87.68
31183;BME280;17813;0.000;0.000;2023-05-11T06:11:59;99098.03;;;14.66;87.33
31183;BME280;17813;0.000;0.000;2023-05-11T06:14:28;99097.44;;;14.63;87.71
31183;BME280;17813;0.000;0.000;2023-05-11T06:16:55;99102.13;;;14.70;87.83
31183;BME280;17813;0.000;0.000;2023-05-11T06:19:24;99106.38;;;14.73;87.85
31183;BME280;17813;0.000;0.000;2023-05-11T06:21:53;99106.69;;;14.79;87.55
31183;BME280;17813;0.000;0.000;2023-05-11T06:24:22;99104.75;;;14.82;86.88
31183;BME280;17813;0.000;0.000;2023-05-11T06:26:50;99099.72;;;14.88;87.03
31183;BME280;17813;0.000;0.000;2023-05-11T06:29:23;99092.63;;;14.98;87.50
31183;BME280;17813;0.000;0.000;2023-05-11T06:31:50;99100.81;;;15.06;87.04
31183;BME280;17813;0.000;0.000;2023-05-11T06:34:22;99101.72;;;15.17;87.27
31183;BME280;17813;0.000;0.000;2023-05-11T06:36:50;99103.19;;;15.30;86.91
31183;BME280;17813;0.000;0.000;2023-05-11T06:39:41;99092.81;;;15.37;86.42
31183;BME280;17813;0.000;0.000;2023-05-11T06:42:20;99105.25;;;15.48;86.38
31183;BME280;17813;0.000;0.000;2023-05-11T06:44:49;99097.50;;;15.65;86.18
31183;BME280;17813;0.000;0.000;2023-05-11T06:47:19;99092.88;;;15.77;85.75
31183;BME280;17813;0.000;0.000;2023-05-11T06:49:46;99093.75;;;15.87;85.29
31183;BME280;17813;0.000;0.000;2023-05-11T06:52:15;99093.06;;;15.95;84.99
31183;BME280;17813;0.000;0.000;2023-05-11T06:54:49;99088.72;;;16.03;84.95
31183;BME280;17813;0.000;0.000;2023-05-11T06:57:22;99087.03;;;16.12;84.93
31183;BME280;17813;0.000;0.000;2023-05-11T06:59:53;99092.25;;;16.23;84.77
31183;BME280;17813;0.000;0.000;2023-05-11T07:02:21;99091.97;;;16.36;84.50
31183;BME280;17813;0.000;0.000;2023-05-11T07:04:49;99084.50;;;16.49;84.19
31183;BME280;17813;0.000;0.000;2023-05-11T07:07:18;99091.72;;;16.68;83.89
31183;BME280;17813;0.000;0.000;2023-05-11T07:09:49;99089.16;;;16.86;83.57
31183;BME280;17813;0.000;0.000;2023-05-11T07:12:16;99092.63;;;17.06;83.24
31183;BME280;17813;0.000;0.000;2023-05-11T07:14:45;99085.34;;;17.35;82.94
31183;BME280;17813;0.000;0.000;2023-05-11T07:17:13;99086.78;;;17.66;82.57
31183;BME280;17813;0.000;0.000;2023-05-11T07:19:41;99081.16;;;17.87;80.82
31183;BME280;17813;0.000;0.000;2023-05-11T07:22:08;99090.91;;;17.88;79.67
31183;BME280;17813;0.000;0.000;2023-05-11T07:24:37;99090.34;;;17.85;78.59
31183;BME280;17813;0.000;0.000;2023-05-11T07:27:05;99088.22;;;17.88;78.43
31183;BME280;17813;0.000;0.000;2023-05-11T07:29:32;99088.28;;;18.77;79.49
31183;BME280;17813;0.000;0.000;2023-05-11T07:32:03;99082.66;;;19.74;76.10
31183;BME280;17813;0.000;0.000;2023-05-11T07:34:31;99093.09;;;19.77;70.81
31183;BME280;17813;0.000;0.000;2023-05-11T07:37:00;99095.44;;;19.46;70.28
31183;BME280;17813;0.000;0.000;2023-05-11T07:39:27;99096.53;;;19.02;71.46
31183;BME280;17813;0.000;0.000;2023-05-11T07:41:57;99102.97;;;18.65;72.02
31183;BME280;17813;0.000;0.000;2023-05-11T07:44:26;99109.06;;;18.22;71.80
31183;BME280;17813;0.000;0.000;2023-05-11T07:46:53;99111.94;;;18.11;72.97
31183;BME280;17813;0.000;0.000;2023-05-11T07:49:23;99107.38;;;18.21;73.27
31183;BME280;17813;0.000;0.000;2023-05-11T07:51:58;99103.41;;;18.60;73.53
31183;BME280;17813;0.000;0.000;2023-05-11T07:54:30;99095.94;;;19.16;73.24
31183;BME280;17813;0.000;0.000;2023-05-11T07:56:58;99090.16;;;19.54;70.78
31183;BME280;17813;0.000;0.000;2023-05-11T07:59:26;99103.00;;;19.77;68.40
31183;BME280;17813;0.000;0.000;2023-05-11T08:01:54;99100.41;;;19.59;67.37
31183;BME280;17813;0.000;0.000;2023-05-11T08:04:22;99107.13;;;19.55;69.02
31183;BME280;17813;0.000;0.000;2023-05-11T08:06:50;99104.47;;;19.63;67.85
31183;BME280;17813;0.000;0.000;2023-05-11T08:09:19;99108.13;;;19.54;68.40
31183;BME280;17813;0.000;0.000;2023-05-11T08:11:47;99107.97;;;19.55;68.93
31183;BME280;17813;0.000;0.000;2023-05-11T08:14:15;99111.59;;;19.46;67.46
31183;BME280;17813;0.000;0.000;2023-05-11T08:16:43;99114.38;;;19.37;69.31
31183;BME280;17813;0.000;0.000;2023-05-11T08:54:32;99108.31;;;20.85;62.64
31183;BME280;17813;0.000;0.000;2023-05-11T08:57:00;99113.19;;;21.31;59.82
31183;BME280;17813;0.000;0.000;2023-05-11T08:59:30;99112.84;;;21.26;61.02
31183;BME280;17813;0.000;0.000;2023-05-11T09:02:00;99115.88;;;21.06;58.44
31183;BME280;17813;0.000;0.000;2023-05-11T09:04:28;99117.41;;;20.93;60.51
31183;BME280;17813;0.000;0.000;2023-05-11T09:06:57;99113.03;;;20.92;60.31
31183;BME280;17813;0.000;0.000;2023-05-11T09:09:25;99121.25;;;21.39;61.40
31183;BME280;17813;0.000;0.000;2023-05-11T09:11:58;99112.91;;;21.65;58.73
31183;BME280;17813;0.000;0.000;2023-05-11T09:14:29;99111.41;;;21.62;58.80
31183;BME280;17813;0.000;0.000;2023-05-11T09:17:05;99120.25;;;21.15;58.89
31183;BME280;17813;0.000;0.000;2023-05-11T09:19:32;99106.78;;;21.32;58.88
31183;BME280;17813;0.000;0.000;2023-05-11T09:21:59;99109.91;;;21.99;57.43
31183;BME280;17813;0.000;0.000;2023-05-11T09:24:26;99107.47;;;22.20;56.39
31183;BME280;17813;0.000;0.000;2023-05-11T09:27:16;99107.69;;;22.10;56.31
31183;BME280;17813;0.000;0.000;2023-05-11T09:29:43;99108.56;;;22.34;55.24
31183;BME280;17813;0.000;0.000;2023-05-11T09:32:20;99112.59;;;22.38;53.93
31183;BME280;17813;0.000;0.000;2023-05-11T09:34:46;99106.94;;;22.25;55.42
31183;BME280;17813;0.000;0.000;2023-05-11T09:37:17;99118.72;;;21.93;54.97
31183;BME280;17813;0.000;0.000;2023-05-11T09:39:46;99105.13;;;22.17;54.67
31183;BME280;17813;0.000;0.000;2023-05-11T09:42:24;99100.69;;;22.24;54.92
31183;BME280;17813;0.000;0.000;2023-05-11T09:44:51;99109.31;;;21.80;54.85
31183;BME280;17813;0.000;0.000;2023-05-11T09:47:20;99110.72;;;21.68;55.09
31183;BME280;17813;0.000;0.000;2023-05-11T09:49:53;99104.06;;;21.40;56.74
31183;BME280;17813;0.000;0.000;2023-05-11T09:52:26;99103.91;;;21.17;55.96
31183;BME280;17813;0.000;0.000;2023-05-11T09:55:09;99110.00;;;21.11;56.29
31183;BME280;17813;0.000;0.000;2023-05-11T09:57:36;99103.09;;;21.08;55.58
31183;BME280;17813;0.000;0.000;2023-05-11T10:00:37;99112.03;;;21.01;56.00
31183;BME280;17813;0.000;0.000;2023-05-11T10:03:14;99116.22;;;21.03;55.30
31183;BME280;17813;0.000;0.000;2023-05-11T10:05:59;99109.81;;;21.21;55.80
31183;BME280;17813;0.000;0.000;2023-05-11T10:08:29;99104.72;;;21.50;55.79
31183;BME280;17813;0.000;0.000;2023-05-11T10:11:00;99109.38;;;21.64;53.61
31183;BME280;17813;0.000;0.000;2023-05-11T10:13:30;99106.53;;;21.58;53.99
31183;BME280;17813;0.000;0.000;2023-05-11T10:16:02;99104.97;;;21.71;54.39
31183;BME280;17813;0.000;0.000;2023-05-11T10:18:37;99102.25;;;21.79;53.91
31183;BME280;17813;0.000;0.000;2023-05-11T10:21:09;99096.38;;;21.68;54.30
31183;BME280;17813;0.000;0.000;2023-05-11T10:27:27;99100.03;;;21.83;53.61
31183;BME280;17813;0.000;0.000;2023-05-11T10:29:55;99099.75;;;22.09;53.02
31183;BME280;17813;0.000;0.000;2023-05-11T10:32:25;99106.31;;;22.14;52.10
31183;BME280;17813;0.000;0.000;2023-05-11T10:34:57;99090.00;;;22.54;50.26
31183;BME280;17813;0.000;0.000;2023-05-11T10:37:26;99087.63;;;22.59;51.25
31183;BME280;17813;0.000;0.000;2023-05-11T10:39:53;99087.56;;;22.90;50.69
31183;BME280;17813;0.000;0.000;2023-05-11T10:53:31;99079.94;;;23.60;47.23
31183;BME280;17813;0.000;0.000;2023-05-11T10:56:31;99080.22;;;23.65;47.74
31183;BME280;17813;0.000;0.000;2023-05-11T11:02:06;99078.31;;;23.51;48.06
31183;BME280;17813;0.000;0.000;2023-05-11T11:04:48;99077.50;;;23.65;47.95
31183;BME280;17813;0.000;0.000;2023-05-11T11:07:18;99072.38;;;23.70;47.88
31183;BME280;17813;0.000;0.000;2023-05-11T11:09:56;99075.34;;;23.76;46.18
31183;BME280;17813;0.000;0.000;2023-05-11T11:12:26;99074.28;;;23.91;47.42
31183;BME280;17813;0.000;0.000;2023-05-11T11:17:30;99068.88;;;23.91;46.71
31183;BME280;17813;0.000;0.000;2023-05-11T11:20:02;99068.19;;;24.04;47.33
31183;BME280;17813;0.000;0.000;2023-05-11T11:25:11;99065.72;;;23.88;45.17
31183;BME280;17813;0.000;0.000;2023-05-11T11:30:19;99068.66;;;23.19;48.39
31183;BME280;17813;0.000;0.000;2023-05-11T11:32:52;99065.13;;;23.33;48.49
31183;BME280;17813;0.000;0.000;2023-05-11T11:38:14;99061.75;;;23.54;45.90
31183;BME280;17813;0.000;0.000;2023-05-11T11:44:27;99058.31;;;23.37;45.32
31183;BME280;17813;0.000;0.000;2023-05-11T11:49:48;99060.09;;;23.30;47.15
31183;BME280;17813;0.000;0.000;2023-05-11T11:52:43;99058.47;;;22.92;47.97
31183;BME280;17813;0.000;0.000;2023-05-11T11:55:44;99055.41;;;22.72;47.36
31183;BME280;17813;0.000;0.000;2023-05-11T12:01:17;99048.34;;;22.48;45.88
31183;BME280;17813;0.000;0.000;2023-05-11T12:03:48;99053.78;;;22.63;47.91
31183;BME280;17813;0.000;0.000;2023-05-11T12:06:24;99047.38;;;22.64;43.53
31183;BME280;17813;0.000;0.000;2023-05-11T12:08:58;99055.66;;;22.39;42.17
31183;BME280;17813;0.000;0.000;2023-05-11T12:11:26;99056.09;;;22.28;44.96
31183;BME280;17813;0.000;0.000;2023-05-11T12:13:56;99048.22;;;22.64;44.28
31183;BME280;17813;0.000;0.000;2023-05-11T12:16:25;99043.00;;;23.00;46.29
31183;BME280;17813;0.000;0.000;2023-05-11T12:18:57;99038.88;;;23.57;44.76
31183;BME280;17813;0.000;0.000;2023-05-11T12:21:28;99037.91;;;23.79;43.34
31183;BME280;17813;0.000;0.000;2023-05-11T12:24:08;99037.25;;;23.77;42.50
31183;BME280;17813;0.000;0.000;2023-05-11T12:26:43;99043.25;;;23.58;43.45
31183;BME280;17813;0.000;0.000;2023-05-11T12:29:14;99043.47;;;23.19;43.50
31183;BME280;17813;0.000;0.000;2023-05-11T12:31:43;99044.66;;;22.64;45.26
31183;BME280;17813;0.000;0.000;2023-05-11T12:34:14;99048.34;;;22.25;46.02
31183;BME280;17813;0.000;0.000;2023-05-11T12:36:44;99053.75;;;21.94;46.76
31183;BME280;17813;0.000;0.000;2023-05-11T12:39:23;99046.91;;;21.36;47.53
31183;BME280;17813;0.000;0.000;2023-05-11T12:41:51;99059.59;;;21.28;48.38
31183;BME280;17813;0.000;0.000;2023-05-11T14:44:44;99028.34;;;22.11;44.58
31183;BME280;17813;0.000;0.000;2023-05-11T14:47:11;99019.28;;;22.27;44.80
31183;BME280;17813;0.000;0.000;2023-05-11T14:49:38;99009.44;;;22.34;44.45
31183;BME280;17813;0.000;0.000;2023-05-11T14:52:06;99017.31;;;22.44;44.53
31183;BME280;17813;0.000;0.000;2023-05-11T14:54:34;99016.69;;;22.57;44.63
31183;BME280;17813;0.000;0.000;2023-05-11T14:57:02;99018.19;;;22.59;44.46
31183;BME280;17813;0.000;0.000;2023-05-11T14:59:29;99021.88;;;22.43;45.68
31183;BME280;17813;0.000;0.000;2023-05-11T15:01:58;99021.94;;;22.35;45.91
31183;BME280;17813;0.000;0.000;2023-05-11T15:04:25;99024.41;;;22.22;45.20
31183;BME280;17813;0.000;0.000;2023-05-11T15:06:53;99020.97;;;22.05;46.07
31183;BME280;17813;0.000;0.000;2023-05-11T15:09:21;99023.50;;;21.99;46.81
31183;BME280;17813;0.000;0.000;2023-05-11T15:11:49;99037.69;;;21.70;47.67
31183;BME280;17813;0.000;0.000;2023-05-11T15:14:18;99045.63;;;21.24;49.29
31183;BME280;17813;0.000;0.000;2023-05-11T15:16:46;99052.75;;;20.84;50.41
31183;BME280;17813;0.000;0.000;2023-05-11T15:19:14;99066.53;;;20.73;50.34
31183;BME280;17813;0.000;0.000;2023-05-11T15:21:40;99074.59;;;20.49;50.99
31183;BME280;17813;0.000;0.000;2023-05-11T15:24:07;99079.59;;;20.19;51.00
31183;BME280;17813;0.000;0.000;2023-05-11T15:26:35;99079.41;;;20.13;50.95
31183;BME280;17813;0.000;0.000;2023-05-11T15:29:04;99092.81;;;19.88;51.40
31183;BME280;17813;0.000;0.000;2023-05-11T15:31:32;99096.13;;;19.74;51.72
31183;BME280;17813;0.000;0.000;2023-05-11T16:45:33;99118.00;;;19.79;53.02
31183;BME280;17813;0.000;0.000;2023-05-11T16:48:01;99124.44;;;19.95;53.17
31183;BME280;17813;0.000;0.000;2023-05-11T16:50:29;99122.63;;;20.03;53.16
31183;BME280;17813;0.000;0.000;2023-05-11T16:52:57;99124.16;;;20.14;52.17
31183;BME280;17813;0.000;0.000;2023-05-11T16:55:24;99116.94;;;20.22;52.88
31183;BME280;17813;0.000;0.000;2023-05-11T16:57:52;99116.47;;;20.27;52.35
31183;BME280;17813;0.000;0.000;2023-05-11T17:00:19;99115.63;;;20.27;52.15
31183;BME280;17813;0.000;0.000;2023-05-11T17:02:47;99113.25;;;20.23;52.63
31183;BME280;17813;0.000;0.000;2023-05-11T17:05:14;99125.03;;;20.22;52.49
31183;BME280;17813;0.000;0.000;2023-05-11T17:07:43;99123.19;;;20.23;52.14
31183;BME280;17813;0.000;0.000;2023-05-11T17:10:13;99122.84;;;20.18;52.51
31183;BME280;17813;0.000;0.000;2023-05-11T17:12:41;99124.69;;;20.17;52.91
31183;BME280;17813;0.000;0.000;2023-05-11T17:15:08;99118.78;;;20.14;52.44
31183;BME280;17813;0.000;0.000;2023-05-11T17:17:41;99122.94;;;20.00;52.31
31183;BME280;17813;0.000;0.000;2023-05-11T17:20:09;99124.44;;;19.95;51.99
31183;BME280;17813;0.000;0.000;2023-05-11T17:22:37;99137.22;;;19.92;52.50
31183;BME280;17813;0.000;0.000;2023-05-11T17:25:05;99137.72;;;19.88;52.37
31183;BME280;17813;0.000;0.000;2023-05-11T17:27:34;99133.28;;;19.79;52.34
31183;BME280;17813;0.000;0.000;2023-05-11T17:30:02;99141.81;;;19.66;52.41
31183;BME280;17813;0.000;0.000;2023-05-11T17:32:28;99139.59;;;19.62;53.49
31183;BME280;17813;0.000;0.000;2023-05-11T17:34:55;99147.00;;;19.59;53.21
31183;BME280;17813;0.000;0.000;2023-05-11T17:37:22;99142.44;;;19.60;53.31
31183;BME280;17813;0.000;0.000;2023-05-11T17:39:50;99150.69;;;19.58;52.86
31183;BME280;17813;0.000;0.000;2023-05-11T17:42:18;99149.31;;;19.54;52.56
31183;BME280;17813;0.000;0.000;2023-05-11T17:44:46;99142.53;;;19.50;52.59
31183;BME280;17813;0.000;0.000;2023-05-11T17:47:14;99152.78;;;19.47;53.50
31183;BME280;17813;0.000;0.000;2023-05-11T17:49:41;99160.47;;;19.42;53.37
31183;BME280;17813;0.000;0.000;2023-05-11T17:52:09;99153.72;;;19.38;53.74
31183;BME280;17813;0.000;0.000;2023-05-11T17:54:37;99160.41;;;19.34;54.19
31183;BME280;17813;0.000;0.000;2023-05-11T17:57:05;99165.25;;;19.30;54.54
31183;BME280;17813;0.000;0.000;2023-05-11T17:59:33;99158.69;;;19.24;54.09
31183;BME280;17813;0.000;0.000;2023-05-11T18:02:01;99166.38;;;19.19;54.37
31183;BME280;17813;0.000;0.000;2023-05-11T18:04:29;99165.63;;;19.09;55.25
31183;BME280;17813;0.000;0.000;2023-05-11T18:06:56;99161.88;;;19.02;56.23
31183;BME280;17813;0.000;0.000;2023-05-11T18:09:24;99156.13;;;18.97;56.05
31183;BME280;17813;0.000;0.000;2023-05-11T18:11:50;99167.34;;;18.92;56.46
31183;BME280;17813;0.000;0.000;2023-05-11T18:14:17;99167.94;;;18.86;56.82
31183;BME280;17813;0.000;0.000;2023-05-11T18:16:44;99167.56;;;18.81;57.48
31183;BME280;17813;0.000;0.000;2023-05-11T18:19:11;99177.09;;;18.76;57.14
31183;BME280;17813;0.000;0.000;2023-05-11T18:21:38;99175.03;;;18.70;57.33
31183;BME280;17813;0.000;0.000;2023-05-11T18:24:06;99182.28;;;18.59;57.45
31183;BME280;17813;0.000;0.000;2023-05-11T18:26:37;99184.88;;;18.51;57.91
31183;BME280;17813;0.000;0.000;2023-05-11T18:29:04;99182.81;;;18.45;57.61
31183;BME280;17813;0.000;0.000;2023-05-11T18:31:31;99190.75;;;18.37;58.04
31183;BME280;17813;0.000;0.000;2023-05-11T18:33:58;99199.47;;;18.21;59.16
31183;BME280;17813;0.000;0.000;2023-05-11T18:36:25;99199.50;;;18.12;59.43
31183;BME280;17813;0.000;0.000;2023-05-11T18:38:53;99203.53;;;17.98;60.14
31183;BME280;17813;0.000;0.000;2023-05-11T18:41:20;99209.91;;;17.87;60.55
31183;BME280;17813;0.000;0.000;2023-05-11T18:43:48;99211.94;;;17.76;60.77
31183;BME280;17813;0.000;0.000;2023-05-11T19:47:50;99254.09;;;16.38;67.54
31183;BME280;17813;0.000;0.000;2023-05-11T19:50:18;99255.22;;;16.36;67.21
31183;BME280;17813;0.000;0.000;2023-05-11T19:52:47;99267.03;;;16.33;67.63
31183;BME280;17813;0.000;0.000;2023-05-11T19:55:16;99264.63;;;16.30;67.78
31183;BME280;17813;0.000;0.000;2023-05-11T19:57:44;99263.22;;;16.26;67.82
31183;BME280;17813;0.000;0.000;2023-05-11T20:00:12;99263.88;;;16.19;67.89
31183;BME280;17813;0.000;0.000;2023-05-11T20:02:40;99265.81;;;16.07;68.53
31183;BME280;17813;0.000;0.000;2023-05-11T20:05:08;99271.72;;;16.01;68.65
31183;BME280;17813;0.000;0.000;2023-05-11T20:07:34;99272.94;;;15.97;68.75
31183;BME280;17813;0.000;0.000;2023-05-11T20:10:02;99267.03;;;15.93;68.71
31183;BME280;17813;0.000;0.000;2023-05-11T20:12:29;99269.97;;;15.90;69.17
31183;BME280;17813;0.000;0.000;2023-05-11T20:14:56;99274.47;;;15.90;69.16
31183;BME280;17813;0.000;0.000;2023-05-11T20:17:25;99276.56;;;15.86;69.24
31183;BME280;17813;0.000;0.000;2023-05-11T20:19:54;99280.16;;;15.75;69.71
31183;BME280;17813;0.000;0.000;2023-05-11T20:22:20;99280.56;;;15.71;69.92
31183;BME280;17813;0.000;0.000;2023-05-11T20:24:48;99281.81;;;15.67;69.88
31183;BME280;17813;0.000;0.000;2023-05-11T20:27:15;99285.31;;;15.67;70.13
31183;BME280;17813;0.000;0.000;2023-05-11T20:29:43;99282.91;;;15.64;70.00
31183;BME280;17813;0.000;0.000;2023-05-11T20:32:10;99282.56;;;15.58;70.24
31183;BME280;17813;0.000;0.000;2023-05-11T20:34:38;99282.31;;;15.50;70.52
31183;BME280;17813;0.000;0.000;2023-05-11T20:37:05;99293.59;;;15.32;72.18
31183;BME280;17813;0.000;0.000;2023-05-11T20:39:33;99291.16;;;15.08;73.57
31183;BME280;17813;0.000;0.000;2023-05-11T20:42:02;99291.66;;;15.02;73.29
31183;BME280;17813;0.000;0.000;2023-05-11T20:44:30;99294.34;;;15.02;73.21
31183;BME280;17813;0.000;0.000;2023-05-11T20:46:57;99289.84;;;15.03;72.82
31183;BME280;17813;0.000;0.000;2023-05-11T20:49:24;99295.44;;;15.00;73.53
31183;BME280;17813;0.000;0.000;2023-05-11T20:51:51;99292.03;;;14.98;73.55
31183;BME280;17813;0.000;0.000;2023-05-11T20:54:19;99294.63;;;14.88;74.40
31183;BME280;17813;0.000;0.000;2023-05-11T20:56:48;99291.38;;;14.85;73.78
31183;BME280;17813;0.000;0.000;2023-05-11T20:59:16;99293.06;;;14.86;73.57
31183;BME280;17813;0.000;0.000;2023-05-11T21:01:43;99294.88;;;14.85;74.03
31183;BME280;17813;0.000;0.000;2023-05-11T21:04:10;99299.16;;;14.76;74.54
31183;BME280;17813;0.000;0.000;2023-05-11T21:06:36;99297.22;;;14.67;75.37
31183;BME280;17813;0.000;0.000;2023-05-11T21:09:03;99298.09;;;14.57;76.09
31183;BME280;17813;0.000;0.000;2023-05-11T21:11:31;99304.41;;;14.56;75.28
31183;BME280;17813;0.000;0.000;2023-05-11T21:13:59;99308.56;;;14.48;75.90
31183;BME280;17813;0.000;0.000;2023-05-11T21:16:27;99305.16;;;14.46;75.34
31183;BME280;17813;0.000;0.000;2023-05-11T21:18:54;99301.63;;;14.46;75.59
31183;BME280;17813;0.000;0.000;2023-05-11T21:21:23;99303.69;;;14.42;75.81
31183;BME280;17813;0.000;0.000;2023-05-11T21:23:54;99316.16;;;14.31;76.18
31183;BME280;17813;0.000;0.000;2023-05-11T21:26:20;99307.81;;;14.24;76.83
31183;BME280;17813;0.000;0.000;2023-05-11T21:28:47;99306.22;;;14.22;76.99
31183;BME280;17813;0.000;0.000;2023-05-11T21:31:14;99309.38;;;14.15;77.41
31183;BME280;17813;0.000;0.000;2023-05-11T21:33:43;99309.50;;;14.14;77.45
31183;BME280;17813;0.000;0.000;2023-05-11T21:36:09;99310.59;;;14.11;77.48
31183;BME280;17813;0.000;0.000;2023-05-11T21:38:37;99311.56;;;14.10;76.98
31183;BME280;17813;0.000;0.000;2023-05-11T21:41:10;99322.00;;;14.13;76.91
31183;BME280;17813;0.000;0.000;2023-05-11T21:43:37;99321.25;;;14.11;76.66
31183;BME280;17813;0.000;0.000;2023-05-11T21:46:05;99329.25;;;14.11;76.71
31183;BME280;17813;0.000;0.000;2023-05-11T22:47:09;99374.50;;;13.67;77.86
31183;BME280;17813;0.000;0.000;2023-05-11T22:49:37;99377.66;;;13.72;77.63
31183;BME280;17813;0.000;0.000;2023-05-11T22:52:05;99370.63;;;13.71;77.52
31183;BME280;17813;0.000;0.000;2023-05-11T22:54:32;99371.13;;;13.76;77.52
31183;BME280;17813;0.000;0.000;2023-05-11T22:57:01;99368.25;;;13.79;77.46
31183;BME280;17813;0.000;0.000;2023-05-11T22:59:29;99357.47;;;13.80;76.93
31183;BME280;17813;0.000;0.000;2023-05-11T23:02:02;99364.56;;;13.69;77.48
31183;BME280;17813;0.000;0.000;2023-05-11T23:04:31;99368.28;;;13.55;78.11
31183;BME280;17813;0.000;0.000;2023-05-11T23:06:59;99366.59;;;13.54;77.80